Time;durP1;ratioP1;P1;durP2;ratioP2;P2;SDS_P1;SDS_P2;PMS_P1;PMS_P2;Temp;Humidity;BMP_temperature;BMP_pressure;BME280_temperature;BME280_humidity;BME280_pressure;Samples;Min_cycle;Max_cycle;Signal;HPM_P1;HPM_P2
2022/07/01 00:01:38;;;;;;;1.60;1.50;;;13.80;99.90;;;;;;5039769;28;20041;-82
2022/07/01 00:04:04;;;;;;;6.88;1.50;;;13.80;99.90;;;;;;5037713;28;20477;-88
2022/07/01 00:06:29;;;;;;;2.10;1.23;;;13.90;99.90;;;;;;5041043;28;20616;-88
2022/07/01 00:08:55;;;;;;;1.95;1.00;;;13.80;99.90;;;;;;5028476;28;20108;-88
2022/07/01 00:11:21;;;;;;;4.55;1.33;;;13.70;99.90;;;;;;5036394;28;20039;-88
2022/07/01 00:13:46;;;;;;;2.38;1.20;;;13.70;99.90;;;;;;5052944;28;20032;-88
2022/07/01 00:16:12;;;;;;;2.83;1.27;;;13.60;99.90;;;;;;5053684;28;20040;-89
2022/07/01 00:18:38;;;;;;;3.38;1.48;;;13.60;99.90;;;;;;5052782;28;20216;-83
2022/07/01 00:21:04;;;;;;;2.88;1.42;;;13.50;99.90;;;;;;5053404;28;20044;-89
2022/07/01 00:23:30;;;;;;;2.15;1.42;;;13.50;99.90;;;;;;5048685;28;20025;-88
2022/07/01 00:25:56;;;;;;;2.88;1.30;;;13.50;99.90;;;;;;5051857;28;20418;-88
2022/07/01 00:28:22;;;;;;;2.15;1.15;;;13.50;99.90;;;;;;5041343;28;20179;-88
2022/07/01 00:30:48;;;;;;;1.10;0.75;;;13.50;99.90;;;;;;5053186;28;20488;-87
2022/07/01 00:33:13;;;;;;;2.80;1.10;;;13.50;99.90;;;;;;5053851;28;20035;-89
2022/07/01 00:35:39;;;;;;;1.20;1.00;;;13.50;99.90;;;;;;5053652;28;20068;-83
2022/07/01 00:38:05;;;;;;;1.80;1.00;;;13.40;99.90;;;;;;5053599;28;20125;-89
2022/07/01 00:40:30;;;;;;;0.80;0.60;;;13.40;99.90;;;;;;5043064;28;20036;-90
2022/07/01 00:42:56;;;;;;;2.38;0.90;;;13.30;99.90;;;;;;5034750;28;20029;-89
2022/07/01 00:45:21;;;;;;;1.50;0.90;;;13.30;99.90;;;;;;5027016;28;20061;-89
2022/07/01 00:47:47;;;;;;;1.52;0.50;;;13.20;99.90;;;;;;5038276;28;20466;-91
2022/07/01 00:50:15;;;;;;;2.00;0.80;;;13.10;99.90;;;;;;5044385;28;20033;-89
2022/07/01 00:52:42;;;;;;;1.40;0.80;;;13.10;99.90;;;;;;5052567;28;20035;-82
2022/07/01 00:55:13;;;;;;;1.25;0.70;;;13.00;99.90;;;;;;5051406;28;20033;-89
2022/07/01 00:57:40;;;;;;;0.98;0.60;;;13.00;99.90;;;;;;5039271;28;20025;-89
2022/07/01 01:00:09;;;;;;;0.93;0.47;;;13.00;99.90;;;;;;5033913;28;20092;-90
2022/07/01 01:02:35;;;;;;;1.70;0.85;;;12.90;99.90;;;;;;5041822;28;20110;-91
2022/07/01 01:05:02;;;;;;;4.80;0.95;;;12.90;99.90;;;;;;5040863;28;20091;-90
2022/07/01 01:07:29;;;;;;;2.28;0.77;;;12.90;99.90;;;;;;5048082;28;20029;-90
2022/07/01 01:09:55;;;;;;;1.88;0.70;;;13.00;99.90;;;;;;5051708;28;20470;-90
2022/07/01 01:12:21;;;;;;;2.42;0.90;;;12.90;99.90;;;;;;5052733;28;20021;-89
2022/07/01 01:14:50;;;;;;;0.70;0.70;;;12.90;99.90;;;;;;5033230;28;20079;-89
2022/07/01 01:17:17;;;;;;;0.70;0.68;;;12.90;99.90;;;;;;5050132;28;20474;-85
2022/07/01 01:19:44;;;;;;;1.02;0.80;;;12.90;99.90;;;;;;5033315;28;20040;-82
2022/07/01 01:22:10;;;;;;;1.65;0.70;;;12.90;99.90;;;;;;5028651;28;20225;-87
2022/07/01 01:24:37;;;;;;;1.55;1.00;;;12.90;99.90;;;;;;5039876;28;20454;-86
2022/07/01 01:27:04;;;;;;;1.23;1.13;;;13.00;99.90;;;;;;5036125;28;20025;-87
2022/07/01 01:29:30;;;;;;;1.10;0.90;;;13.00;99.90;;;;;;5050402;28;20112;-87
2022/07/01 01:31:56;;;;;;;2.58;0.90;;;13.00;99.90;;;;;;5040250;28;20116;-86
2022/07/01 01:34:21;;;;;;;2.25;0.80;;;13.00;99.90;;;;;;5031148;28;20072;-85
2022/07/01 01:36:47;;;;;;;1.80;0.50;;;13.00;99.90;;;;;;5031578;28;20052;-86
2022/07/01 01:39:18;;;;;;;0.82;0.75;;;13.10;99.90;;;;;;5045549;28;20037;-88
2022/07/01 01:41:45;;;;;;;1.67;1.00;;;13.00;99.90;;;;;;5041357;28;20468;-82
2022/07/01 01:44:11;;;;;;;1.35;0.63;;;13.00;99.90;;;;;;5050965;28;20025;-88
2022/07/01 01:46:37;;;;;;;1.30;0.57;;;13.00;99.90;;;;;;5051868;28;20362;-86
2022/07/01 01:49:04;;;;;;;0.52;0.52;;;13.00;99.90;;;;;;5037400;28;20618;-85
2022/07/01 01:51:30;;;;;;;1.90;0.85;;;13.00;99.90;;;;;;5039561;28;20029;-86
2022/07/01 01:53:56;;;;;;;0.82;0.70;;;13.00;99.90;;;;;;5030138;28;20055;-85
2022/07/01 01:56:23;;;;;;;3.00;0.90;;;13.00;99.90;;;;;;5030598;28;20431;-84
2022/07/01 01:58:49;;;;;;;0.77;0.75;;;13.00;99.90;;;;;;5032254;28;20044;-85
2022/07/01 02:01:16;;;;;;;1.20;0.60;;;13.00;99.90;;;;;;5031923;28;20060;-87
2022/07/01 02:03:43;;;;;;;0.80;0.80;;;13.10;99.90;;;;;;5031926;28;20033;-84
2022/07/01 02:06:09;;;;;;;1.40;0.73;;;13.10;99.90;;;;;;5035876;28;20087;-84
2022/07/01 02:08:36;;;;;;;1.52;1.00;;;13.10;99.90;;;;;;5033377;28;20398;-87
2022/07/01 02:11:02;;;;;;;1.48;0.88;;;13.10;99.90;;;;;;5037092;28;20021;-86
2022/07/01 02:13:28;;;;;;;2.30;0.80;;;13.10;99.90;;;;;;5032659;28;20033;-87
2022/07/01 02:15:54;;;;;;;0.63;0.60;;;13.10;99.90;;;;;;5031374;28;20100;-88
2022/07/01 02:18:20;;;;;;;1.98;0.80;;;13.10;99.90;;;;;;5032929;28;20060;-86
2022/07/01 02:20:45;;;;;;;2.22;0.88;;;13.10;99.90;;;;;;5051059;28;20469;-83
2022/07/01 02:23:11;;;;;;;4.03;0.80;;;13.00;99.90;;;;;;5036306;28;20407;-89
2022/07/01 02:25:37;;;;;;;1.02;0.80;;;13.00;99.90;;;;;;5032577;28;20486;-84
2022/07/01 02:28:03;;;;;;;0.82;0.82;;;13.00;99.90;;;;;;5025501;28;20031;-86
2022/07/01 02:30:30;;;;;;;1.83;0.77;;;13.10;99.90;;;;;;5034316;28;20041;-81
2022/07/01 02:32:56;;;;;;;3.50;0.90;;;13.10;99.90;;;;;;5042527;28;20025;-80
2022/07/01 02:35:22;;;;;;;1.48;1.13;;;13.00;99.90;;;;;;5054470;28;20473;-89
2022/07/01 02:37:48;;;;;;;1.85;0.82;;;13.00;99.90;;;;;;5054115;28;20028;-81
2022/07/01 02:40:13;;;;;;;1.08;0.90;;;13.00;99.90;;;;;;5040709;28;20033;-86
2022/07/01 02:42:40;;;;;;;3.05;1.52;;;13.00;99.90;;;;;;5044030;28;20465;-88
2022/07/01 02:45:08;;;;;;;2.42;0.98;;;13.10;99.90;;;;;;5052663;28;20029;-87
2022/07/01 02:47:40;;;;;;;2.05;0.95;;;13.10;99.90;;;;;;5051899;28;20030;-87
2022/07/01 02:50:10;;;;;;;1.30;0.90;;;13.00;99.90;;;;;;5035936;28;20100;-86
2022/07/01 02:52:37;;;;;;;1.42;0.90;;;13.10;99.90;;;;;;5038537;28;20434;-83
2022/07/01 02:55:05;;;;;;;1.33;1.00;;;13.10;99.90;;;;;;5054542;28;20031;-83
2022/07/01 02:57:30;;;;;;;3.25;1.00;;;13.10;99.90;;;;;;5038409;28;20416;-85
2022/07/01 02:59:56;;;;;;;4.18;1.50;;;13.10;99.90;;;;;;5029670;28;20082;-84
2022/07/01 03:02:22;;;;;;;2.25;1.13;;;13.20;99.90;;;;;;5033678;28;20034;-84
2022/07/01 03:04:50;;;;;;;2.40;1.48;;;13.20;99.90;;;;;;5039385;28;20060;-81
2022/07/01 03:07:16;;;;;;;3.90;1.50;;;13.10;99.90;;;;;;5055394;28;20029;-82
2022/07/01 03:09:43;;;;;;;2.83;1.73;;;13.10;99.90;;;;;;5028411;28;20030;-86
2022/07/01 03:12:25;;;;;;;4.18;2.33;;;13.10;99.90;;;;;;5040786;28;20013;-82
2022/07/01 03:14:55;;;;;;;2.42;1.70;;;13.10;99.90;;;;;;5040444;28;20078;-81
2022/07/01 03:17:21;;;;;;;1.88;1.58;;;13.10;99.90;;;;;;5042970;28;20036;-84
2022/07/01 03:19:47;;;;;;;2.33;1.30;;;13.20;99.90;;;;;;5054783;28;20029;-84
2022/07/01 03:22:13;;;;;;;2.35;1.60;;;13.20;99.90;;;;;;5054068;28;20040;-81
2022/07/01 03:24:38;;;;;;;3.67;1.88;;;13.30;99.90;;;;;;5049156;28;20057;-81
2022/07/01 03:27:04;;;;;;;3.03;1.50;;;13.20;99.90;;;;;;5034599;28;20040;-82
2022/07/01 03:29:30;;;;;;;1.83;1.15;;;13.30;99.90;;;;;;5036555;28;20421;-82
2022/07/01 03:31:55;;;;;;;2.88;1.20;;;13.20;99.90;;;;;;5031847;28;20520;-81
2022/07/01 03:34:21;;;;;;;1.85;1.42;;;13.20;99.90;;;;;;5035440;28;20025;-82
2022/07/01 03:36:47;;;;;;;3.38;1.50;;;13.20;99.90;;;;;;5050217;28;20031;-80
2022/07/01 03:39:12;;;;;;;1.40;1.17;;;13.20;99.90;;;;;;5044242;28;20038;-79
2022/07/01 03:41:38;;;;;;;4.50;1.40;;;13.20;99.90;;;;;;5048551;28;20029;-82
2022/07/01 03:44:05;;;;;;;4.15;1.38;;;13.20;99.90;;;;;;5053333;28;20025;-82
2022/07/01 03:46:31;;;;;;;1.45;0.82;;;13.20;99.90;;;;;;5052650;28;20109;-84
2022/07/01 03:48:57;;;;;;;3.92;1.80;;;13.30;99.90;;;;;;5047647;28;20100;-81
2022/07/01 03:51:23;;;;;;;1.45;1.10;;;13.20;99.90;;;;;;5049657;28;20354;-82
2022/07/01 03:56:33;;;;;;;1.00;1.00;;;13.30;99.90;;;;;;5044421;28;20035;-85
2022/07/01 03:58:58;;;;;;;1.00;0.90;;;13.20;99.90;;;;;;5043131;28;20069;-85
2022/07/01 04:01:24;;;;;;;2.85;0.93;;;13.20;99.90;;;;;;5040745;28;20080;-84
2022/07/01 04:03:50;;;;;;;1.55;0.88;;;13.30;99.90;;;;;;5045672;28;20061;-80
2022/07/01 04:06:16;;;;;;;1.55;1.40;;;13.30;99.90;;;;;;5034843;28;20053;-86
2022/07/01 04:08:42;;;;;;;2.35;1.30;;;13.30;99.90;;;;;;5028863;28;20041;-87
2022/07/01 04:11:08;;;;;;;1.55;1.33;;;13.20;99.90;;;;;;5049939;28;20037;-84
2022/07/01 04:13:37;;;;;;;6.57;1.40;;;13.10;99.90;;;;;;5034391;28;20053;-88
2022/07/01 04:16:03;;;;;;;2.90;1.30;;;13.10;99.90;;;;;;5034355;28;20033;-84
2022/07/01 04:18:29;;;;;;;3.22;1.50;;;13.00;99.90;;;;;;5032066;28;20483;-86
2022/07/01 04:23:40;;;;;;;3.65;1.33;;;12.90;99.90;;;;;;5028064;28;20040;-92
2022/07/01 04:26:06;;;;;;;2.90;1.67;;;12.90;99.90;;;;;;5035542;28;20399;-84
2022/07/01 04:28:31;;;;;;;1.45;1.33;;;12.80;99.90;;;;;;5033949;28;20385;-86
2022/07/01 04:30:57;;;;;;;2.28;1.40;;;12.80;99.90;;;;;;5033509;28;20036;-85
2022/07/01 04:33:22;;;;;;;1.27;1.10;;;12.80;99.90;;;;;;5033796;28;20091;-85
2022/07/01 04:35:48;;;;;;;1.98;1.20;;;12.80;99.90;;;;;;5035058;28;20043;-83
2022/07/01 04:38:14;;;;;;;1.33;1.00;;;12.70;99.90;;;;;;5034657;28;20646;-86
2022/07/01 04:40:39;;;;;;;2.50;1.67;;;12.70;99.90;;;;;;5031225;28;20033;-88
2022/07/01 04:43:05;;;;;;;4.13;1.60;;;12.70;99.90;;;;;;5041915;28;20485;-89
2022/07/01 04:45:30;;;;;;;6.70;1.38;;;12.60;99.90;;;;;;5035084;28;20040;-89
2022/07/01 04:47:56;;;;;;;2.78;1.23;;;12.60;99.90;;;;;;5043693;28;20096;-82
2022/07/01 04:50:22;;;;;;;1.15;0.98;;;12.70;99.90;;;;;;5048712;28;20489;-88
2022/07/01 04:52:47;;;;;;;2.45;1.33;;;12.70;99.90;;;;;;5047551;28;20033;-88
2022/07/01 04:55:13;;;;;;;1.33;1.05;;;12.60;99.90;;;;;;5044951;28;20459;-85
2022/07/01 04:57:39;;;;;;;1.75;1.20;;;12.70;99.90;;;;;;5032637;28;20036;-89
2022/07/01 05:00:05;;;;;;;2.58;1.00;;;12.60;99.90;;;;;;5042739;28;20033;-87
2022/07/01 05:02:30;;;;;;;1.23;1.02;;;12.50;99.90;;;;;;5047119;28;20469;-88
2022/07/01 05:04:56;;;;;;;1.70;1.23;;;12.50;99.90;;;;;;5044206;28;20017;-79
2022/07/01 05:07:28;;;;;;;1.10;1.00;;;12.50;99.90;;;;;;5050484;28;20124;-73
2022/07/01 05:09:55;;;;;;;2.63;1.20;;;12.50;99.90;;;;;;5052126;28;20069;-72
2022/07/01 05:12:21;;;;;;;2.72;1.52;;;12.50;99.90;;;;;;5037036;28;20043;-71
2022/07/01 05:14:46;;;;;;;7.43;1.83;;;12.50;99.90;;;;;;5031441;28;20125;-75
2022/07/01 05:17:12;;;;;;;1.40;1.30;;;12.50;99.90;;;;;;5032166;28;20112;-75
2022/07/01 05:22:22;;;;;;;3.35;1.70;;;12.60;99.90;;;;;;5051738;28;20091;-73
2022/07/01 05:24:47;;;;;;;3.22;1.55;;;12.60;99.90;;;;;;5056191;28;20456;-78
2022/07/01 05:27:13;;;;;;;4.78;1.73;;;12.60;99.90;;;;;;5054955;28;20037;-79
2022/07/01 05:29:39;;;;;;;2.40;1.50;;;12.60;99.90;;;;;;5044524;28;20029;-80
2022/07/01 05:32:05;;;;;;;3.63;1.70;;;12.70;99.90;;;;;;5044388;28;20063;-79
2022/07/01 05:34:30;;;;;;;2.88;1.77;;;12.70;99.90;;;;;;5054146;28;20057;-78
2022/07/01 05:36:57;;;;;;;2.50;1.83;;;12.70;99.90;;;;;;5044326;28;20029;-84
2022/07/01 05:39:23;;;;;;;3.00;2.00;;;12.70;99.90;;;;;;5038490;28;20090;-83
2022/07/01 05:41:48;;;;;;;3.63;2.08;;;12.70;99.90;;;;;;5038248;28;20030;-80
2022/07/01 05:44:14;;;;;;;4.25;2.38;;;12.70;99.90;;;;;;5037857;28;20029;-85
2022/07/01 05:46:40;;;;;;;2.97;2.45;;;12.70;99.90;;;;;;5054972;28;20044;-85
2022/07/01 05:49:06;;;;;;;3.03;2.47;;;12.80;99.90;;;;;;5041499;28;20382;-78
2022/07/01 05:51:32;;;;;;;4.15;2.83;;;12.80;99.90;;;;;;5039288;28;20091;-75
2022/07/01 05:53:57;;;;;;;3.17;2.50;;;12.70;99.90;;;;;;5031203;28;20144;-85
2022/07/01 05:56:23;;;;;;;2.85;2.40;;;12.70;99.90;;;;;;5035596;28;20029;-76
2022/07/01 05:58:49;;;;;;;7.03;2.80;;;12.70;99.90;;;;;;5039574;28;20029;-76
2022/07/01 06:01:15;;;;;;;5.15;2.90;;;12.70;99.90;;;;;;5051591;28;20029;-78
2022/07/01 06:03:40;;;;;;;3.78;2.83;;;12.70;99.90;;;;;;5040443;28;20033;-78
2022/07/01 06:06:06;;;;;;;4.68;3.38;;;12.70;99.90;;;;;;5033382;28;20037;-77
2022/07/01 06:08:33;;;;;;;4.25;3.00;;;12.70;99.90;;;;;;5042309;28;20565;-79
2022/07/01 06:10:59;;;;;;;4.65;3.15;;;12.70;99.90;;;;;;5028232;28;20026;-75
2022/07/01 06:13:24;;;;;;;5.22;3.20;;;12.80;99.90;;;;;;5049735;28;20063;-77
2022/07/01 06:15:50;;;;;;;4.22;3.17;;;12.80;99.90;;;;;;5034986;28;20080;-79
2022/07/01 06:18:16;;;;;;;4.95;2.70;;;12.90;99.90;;;;;;5041201;28;20076;-79
2022/07/01 06:20:43;;;;;;;3.92;2.88;;;12.90;99.90;;;;;;5044129;28;20087;-78
2022/07/01 06:23:08;;;;;;;5.28;3.13;;;12.90;99.90;;;;;;5044882;28;20105;-78
2022/07/01 06:25:34;;;;;;;3.42;3.05;;;12.90;99.90;;;;;;5043136;28;20037;-80
2022/07/01 06:27:59;;;;;;;8.13;3.60;;;12.80;99.90;;;;;;5036794;28;20105;-83
2022/07/01 06:30:25;;;;;;;5.50;3.58;;;12.80;99.90;;;;;;5046467;28;20091;-78
2022/07/01 06:32:51;;;;;;;3.83;3.08;;;12.80;99.90;;;;;;5044147;28;20381;-79
2022/07/01 06:35:16;;;;;;;4.18;3.42;;;12.90;99.90;;;;;;5043889;28;20077;-77
2022/07/01 06:37:42;;;;;;;3.25;2.95;;;13.00;99.90;;;;;;5035577;28;20094;-77
2022/07/01 06:40:08;;;;;;;3.78;3.13;;;12.90;99.90;;;;;;5035132;28;20075;-78
2022/07/01 06:42:34;;;;;;;4.32;3.15;;;12.90;99.90;;;;;;5034818;28;20045;-81
2022/07/01 06:45:00;;;;;;;4.18;3.08;;;12.90;99.90;;;;;;5039243;28;20099;-84
2022/07/01 06:47:25;;;;;;;3.92;3.13;;;12.90;99.90;;;;;;5047678;28;20036;-78
2022/07/01 06:49:51;;;;;;;5.50;2.88;;;12.90;99.90;;;;;;5043385;28;20037;-77
2022/07/01 06:52:17;;;;;;;5.10;2.70;;;13.00;99.90;;;;;;5046517;28;20402;-76
2022/07/01 06:54:42;;;;;;;6.15;2.72;;;13.00;99.90;;;;;;5041737;28;20021;-76
2022/07/01 06:57:08;;;;;;;3.10;2.58;;;13.00;99.90;;;;;;5047966;28;20040;-76
2022/07/01 06:59:34;;;;;;;3.53;2.80;;;13.00;99.90;;;;;;5041700;28;20037;-76
2022/07/01 07:01:59;;;;;;;4.13;2.80;;;13.00;99.90;;;;;;5043137;28;20040;-84
2022/07/01 07:04:25;;;;;;;5.40;2.92;;;13.00;99.90;;;;;;5027163;28;20026;-78
2022/07/01 07:06:51;;;;;;;4.72;2.67;;;13.00;99.90;;;;;;5043825;28;20100;-77
2022/07/01 07:09:17;;;;;;;3.38;2.83;;;13.00;99.90;;;;;;5042300;28;20035;-77
2022/07/01 07:11:42;;;;;;;4.40;2.22;;;13.10;99.90;;;;;;5040624;28;20021;-79
2022/07/01 07:14:08;;;;;;;4.00;1.98;;;13.10;99.90;;;;;;5035920;28;20524;-77
2022/07/01 07:16:34;;;;;;;2.67;2.47;;;13.10;99.90;;;;;;5047988;28;20108;-76
2022/07/01 07:18:59;;;;;;;2.83;2.08;;;13.10;99.90;;;;;;5030914;28;20049;-83
2022/07/01 07:21:25;;;;;;;5.57;1.95;;;13.20;99.90;;;;;;5037240;28;20112;-80
2022/07/01 07:23:50;;;;;;;2.80;2.03;;;13.20;99.90;;;;;;5047485;28;20028;-76
2022/07/01 07:26:16;;;;;;;4.20;2.40;;;13.20;99.90;;;;;;5042917;28;20026;-77
2022/07/01 07:28:42;;;;;;;2.30;1.77;;;13.20;99.90;;;;;;5047229;28;20056;-76
2022/07/01 07:31:07;;;;;;;4.78;3.00;;;13.20;99.90;;;;;;5053911;28;20036;-78
2022/07/01 07:33:33;;;;;;;2.50;2.20;;;13.20;99.90;;;;;;5054475;28;20057;-77
2022/07/01 07:35:59;;;;;;;2.45;1.95;;;13.20;99.90;;;;;;5047244;28;20028;-84
2022/07/01 07:38:24;;;;;;;4.13;2.40;;;13.30;99.90;;;;;;5035900;28;20029;-77
2022/07/01 07:40:50;;;;;;;4.65;2.33;;;13.20;99.90;;;;;;5047844;28;20039;-77
2022/07/01 07:43:16;;;;;;;2.33;1.90;;;13.20;99.90;;;;;;5050888;28;20158;-78
2022/07/01 07:45:42;;;;;;;2.72;2.20;;;13.20;99.90;;;;;;5051742;28;20439;-81
2022/07/01 07:48:09;;;;;;;3.00;2.17;;;13.20;99.90;;;;;;5040780;28;20032;-78
2022/07/01 07:50:35;;;;;;;3.10;2.08;;;13.30;99.90;;;;;;5046860;28;20039;-78
2022/07/01 07:53:00;;;;;;;2.80;1.80;;;13.30;99.90;;;;;;5052600;28;20448;-84
2022/07/01 07:55:27;;;;;;;2.45;2.25;;;13.30;99.90;;;;;;5052569;28;20161;-77
2022/07/01 07:57:53;;;;;;;2.83;2.33;;;13.30;99.90;;;;;;5046911;28;20082;-77
2022/07/01 08:00:19;;;;;;;3.88;2.17;;;13.20;99.90;;;;;;5043125;28;20182;-77
2022/07/01 08:02:45;;;;;;;5.72;2.47;;;13.10;99.90;;;;;;5051471;28;20496;-78
2022/07/01 08:05:11;;;;;;;4.03;2.65;;;13.10;99.90;;;;;;5052738;28;20028;-79
2022/07/01 08:07:38;;;;;;;4.68;2.47;;;13.10;99.90;;;;;;5045854;28;20478;-77
2022/07/01 08:10:06;;;;;;;4.57;2.42;;;13.10;99.90;;;;;;5044261;28;20095;-84
2022/07/01 08:12:32;;;;;;;4.35;2.83;;;13.10;99.90;;;;;;5048479;28;20052;-77
2022/07/01 08:14:58;;;;;;;2.83;2.35;;;13.10;99.90;;;;;;5041684;28;20439;-75
2022/07/01 08:17:24;;;;;;;2.67;2.13;;;13.10;99.90;;;;;;5032711;28;20022;-76
2022/07/01 08:19:50;;;;;;;3.20;2.45;;;13.10;99.90;;;;;;5040929;28;20037;-76
2022/07/01 08:22:16;;;;;;;3.88;2.40;;;13.10;99.90;;;;;;5049326;28;20441;-77
2022/07/01 08:24:41;;;;;;;2.78;2.47;;;13.10;99.90;;;;;;5046674;28;20112;-76
2022/07/01 08:27:07;;;;;;;5.72;2.80;;;13.10;99.90;;;;;;5042816;28;20017;-76
2022/07/01 08:29:33;;;;;;;2.35;1.95;;;13.10;99.90;;;;;;5044911;28;20033;-77
2022/07/01 08:31:58;;;;;;;3.85;2.75;;;13.10;99.90;;;;;;5045160;28;20364;-76
2022/07/01 08:34:24;;;;;;;3.35;2.75;;;13.10;99.90;;;;;;5044530;28;20094;-78
2022/07/01 08:36:49;;;;;;;4.03;2.78;;;13.20;99.90;;;;;;5051695;28;20029;-76
2022/07/01 08:39:15;;;;;;;4.15;2.80;;;13.30;99.90;;;;;;5038795;28;20394;-78
2022/07/01 08:41:42;;;;;;;4.60;2.97;;;13.30;99.90;;;;;;5046019;28;20030;-77
2022/07/01 08:44:08;;;;;;;5.30;2.60;;;13.30;99.90;;;;;;5035082;28;20478;-76
2022/07/01 08:46:34;;;;;;;2.60;2.13;;;13.40;99.90;;;;;;5043721;28;20032;-76
2022/07/01 08:49:01;;;;;;;3.08;1.98;;;13.40;99.90;;;;;;5041986;28;20068;-76
2022/07/01 08:51:27;;;;;;;3.22;2.13;;;13.40;99.90;;;;;;5042499;28;20026;-78
2022/07/01 08:53:52;;;;;;;4.45;2.45;;;13.40;99.90;;;;;;5047479;28;20033;-77
2022/07/01 08:59:02;;;;;;;3.63;2.35;;;13.50;99.90;;;;;;5040861;28;20044;-84
2022/07/01 09:01:28;;;;;;;2.63;1.80;;;13.50;99.90;;;;;;5032706;28;20029;-77
2022/07/01 09:03:56;;;;;;;3.22;2.10;;;13.50;99.90;;;;;;5039065;28;20378;-77
2022/07/01 09:06:25;;;;;;;2.58;2.03;;;13.50;99.90;;;;;;5049468;28;20033;-78
2022/07/01 09:08:51;;;;;;;2.30;2.00;;;13.50;99.90;;;;;;5041788;28;20032;-76
2022/07/01 09:11:20;;;;;;;2.67;2.03;;;13.50;99.90;;;;;;5045835;28;20120;-83
2022/07/01 09:14:11;;;;;;;1.90;1.70;;;13.60;99.90;;;;;;5052975;28;20087;-77
2022/07/01 09:16:49;;;;;;;4.97;1.88;;;13.70;99.90;;;;;;5046148;28;20020;-78
2022/07/01 09:19:16;;;;;;;4.03;2.45;;;13.60;99.90;;;;;;5041791;28;20052;-77
2022/07/01 09:21:46;;;;;;;4.07;2.40;;;13.60;99.90;;;;;;5041948;28;20052;-77
2022/07/01 09:24:30;;;;;;;;;;;13.50;99.90;;;;;;5050329;28;20037;-80
2022/07/01 09:27:00;;;;;;;7.18;2.85;;;13.50;99.90;;;;;;5027909;28;19909;-78
2022/07/01 09:29:37;;;;;;;5.35;2.92;;;13.60;99.90;;;;;;5048175;28;20047;-78
2022/07/01 09:32:06;;;;;;;5.47;2.58;;;13.50;99.90;;;;;;5050923;28;20040;-75
2022/07/01 09:34:39;;;;;;;5.60;2.50;;;13.40;99.90;;;;;;5046305;28;20143;-79
2022/07/01 09:37:05;;;;;;;3.47;2.78;;;13.40;99.90;;;;;;5052424;28;20036;-82
2022/07/01 09:39:45;;;;;;;3.05;2.30;;;13.30;99.90;;;;;;5046326;28;20067;-79
2022/07/01 09:42:11;;;;;;;2.92;2.20;;;13.20;99.90;;;;;;5050377;28;20033;-76
2022/07/01 09:44:51;;;;;;;4.07;1.70;;;13.20;99.90;;;;;;5030156;28;20106;-78
2022/07/01 09:47:17;;;;;;;2.72;2.00;;;13.20;99.90;;;;;;5041393;28;20029;-79
2022/07/01 09:49:43;;;;;;;5.05;2.38;;;13.10;99.90;;;;;;5045536;28;20041;-79
2022/07/01 09:52:09;;;;;;;4.72;2.60;;;13.00;99.90;;;;;;5034752;28;20049;-83
2022/07/01 09:54:36;;;;;;;3.53;2.50;;;12.90;99.90;;;;;;5052210;28;20477;-79
2022/07/01 09:57:02;;;;;;;3.97;2.53;;;12.90;99.90;;;;;;5046297;28;20029;-78
2022/07/01 09:59:28;;;;;;;4.40;2.45;;;12.90;99.90;;;;;;5051480;28;20869;-78
2022/07/01 10:01:54;;;;;;;2.45;2.03;;;12.90;99.90;;;;;;5045011;28;20024;-79
2022/07/01 10:04:20;;;;;;;5.43;2.17;;;12.90;99.90;;;;;;5048117;28;20029;-79
2022/07/01 10:06:57;;;;;;;4.10;2.03;;;12.90;99.90;;;;;;5036234;28;20063;-78
2022/07/01 10:09:56;;;;;;;3.72;2.33;;;13.00;99.90;;;;;;5030887;28;20473;-79
2022/07/01 10:12:31;;;;;;;5.18;2.70;;;13.10;99.90;;;;;;5038156;28;20028;-78
2022/07/01 10:15:01;;;;;;;4.88;2.40;;;13.20;99.90;;;;;;5031861;28;20041;-79
2022/07/01 10:17:29;;;;;;;3.05;2.20;;;13.30;99.90;;;;;;5030476;28;20203;-79
2022/07/01 10:19:56;;;;;;;4.13;2.05;;;13.40;99.90;;;;;;5033372;28;20033;-79
2022/07/01 10:22:26;;;;;;;2.50;2.30;;;13.50;99.90;;;;;;5044234;28;20021;-78
2022/07/01 10:24:52;;;;;;;3.42;2.17;;;13.60;99.90;;;;;;5046554;28;20028;-78
2022/07/01 10:27:23;;;;;;;3.33;2.35;;;13.70;99.90;;;;;;5049396;28;20393;-78
2022/07/01 10:29:49;;;;;;;2.13;1.92;;;13.90;99.90;;;;;;5049364;28;20036;-77
2022/07/01 10:32:21;;;;;;;2.33;2.10;;;14.00;99.90;;;;;;5039103;28;20628;-77
2022/07/01 10:34:47;;;;;;;2.97;1.80;;;14.20;99.90;;;;;;5034565;28;20025;-76
2022/07/01 10:37:13;;;;;;;1.92;1.55;;;14.40;99.90;;;;;;5042287;28;20036;-77
2022/07/01 10:39:53;;;;;;;3.50;1.67;;;14.60;99.90;;;;;;5036186;28;20036;-78
2022/07/01 10:42:20;;;;;;;3.03;1.50;;;14.80;99.90;;;;;;5046211;28;20034;-77
2022/07/01 10:45:09;;;;;;;1.20;1.10;;;15.00;99.90;;;;;;5036391;28;20036;-77
2022/07/01 10:47:36;;;;;;;2.92;1.20;;;15.20;99.90;;;;;;5038284;28;20037;-76
2022/07/01 10:50:15;;;;;;;2.63;1.10;;;15.40;99.90;;;;;;5031406;28;20033;-77
2022/07/01 10:52:59;;;;;;;3.13;1.40;;;15.70;99.90;;;;;;5037314;28;20021;-77
2022/07/01 10:55:40;;;;;;;2.67;1.38;;;16.00;99.90;;;;;;5023939;28;20029;-77
2022/07/01 10:58:07;;;;;;;5.97;1.27;;;16.20;99.90;;;;;;5039516;28;20032;-77
2022/07/01 11:00:35;;;;;;;1.75;1.15;;;16.30;99.90;;;;;;5046859;28;20040;-76
2022/07/01 11:03:27;;;;;;;2.10;1.30;;;16.30;99.90;;;;;;5029299;28;20057;-76
2022/07/01 11:05:55;;;;;;;4.63;1.40;;;16.20;99.90;;;;;;5038718;28;20044;-76
2022/07/01 11:08:21;;;;;;;3.33;1.25;;;16.20;99.90;;;;;;5052854;28;20422;-76
2022/07/01 11:10:51;;;;;;;2.97;1.05;;;16.20;99.90;;;;;;5043429;28;20037;-77
2022/07/01 11:13:18;;;;;;;1.30;1.05;;;16.20;99.90;;;;;;5048023;28;20508;-78
2022/07/01 11:15:47;;;;;;;3.47;1.48;;;16.10;99.90;;;;;;5048388;28;20461;-76
2022/07/01 11:18:15;;;;;;;8.75;1.83;;;16.20;99.90;;;;;;5038333;28;20041;-77
2022/07/01 11:20:41;;;;;;;2.15;1.08;;;16.20;99.90;;;;;;5043222;28;20065;-77
2022/07/01 11:23:06;;;;;;;3.58;1.50;;;16.00;99.90;;;;;;5048370;28;20102;-77
2022/07/01 11:25:32;;;;;;;1.55;1.00;;;16.00;99.90;;;;;;5051813;28;20143;-77
2022/07/01 11:27:58;;;;;;;2.80;1.20;;;16.00;99.90;;;;;;5049540;28;20392;-77
2022/07/01 11:30:24;;;;;;;2.17;1.08;;;15.90;99.90;;;;;;5052812;28;20448;-77
2022/07/01 11:32:55;;;;;;;2.75;0.80;;;16.00;99.90;;;;;;5050964;28;20036;-77
2022/07/01 11:41:03;;;;;;;2.00;1.33;;;15.80;99.90;;;;;;5053415;28;20082;-77
2022/07/01 11:43:35;;;;;;;0.98;0.93;;;15.80;99.90;;;;;;5052527;28;20021;-77
2022/07/01 11:46:03;;;;;;;3.35;1.27;;;15.90;99.90;;;;;;5048145;28;20029;-78
2022/07/01 11:48:51;;;;;;;1.40;0.85;;;16.00;99.90;;;;;;5039433;28;20032;-79
2022/07/01 11:51:22;;;;;;;1.88;1.00;;;16.20;99.90;;;;;;5037032;28;20095;-76
2022/07/01 11:53:51;;;;;;;2.58;0.80;;;16.40;99.90;;;;;;5045517;28;20034;-77
2022/07/01 11:56:27;;;;;;;5.18;0.80;;;16.90;99.90;;;;;;5048793;28;20116;-76
2022/07/01 11:58:53;;;;;;;2.92;0.80;;;17.30;99.90;;;;;;5052744;28;20060;-78
2022/07/01 12:01:34;;;;;;;1.30;0.70;;;17.50;99.90;;;;;;5051259;28;20036;-77
2022/07/01 12:04:02;;;;;;;0.88;0.70;;;17.80;99.90;;;;;;5048418;28;20044;-76
2022/07/01 12:06:28;;;;;;;1.77;0.82;;;18.20;99.90;;;;;;5047327;28;20033;-76
2022/07/01 12:08:56;;;;;;;1.00;0.90;;;18.40;99.90;;;;;;5042093;28;20025;-77
2022/07/01 12:11:24;;;;;;;1.73;0.90;;;18.50;99.90;;;;;;5044447;28;20021;-78
2022/07/01 12:13:50;;;;;;;0.82;0.80;;;18.60;99.90;;;;;;5050113;28;20110;-78
2022/07/01 12:16:16;;;;;;;1.65;0.82;;;18.80;99.90;;;;;;5045220;28;20033;-78
2022/07/01 12:18:56;;;;;;;2.55;1.30;;;19.00;99.90;;;;;;5051432;28;20064;-78
2022/07/01 12:21:24;;;;;;;1.40;0.82;;;19.40;99.90;;;;;;5032701;28;20021;-77
2022/07/01 12:24:07;;;;;;;3.40;1.10;;;19.70;99.90;;;;;;5051359;28;20186;-78
2022/07/01 12:26:33;;;;;;;1.13;0.90;;;19.80;99.90;;;;;;5045911;28;20207;-79
2022/07/01 12:28:59;;;;;;;1.20;0.80;;;19.90;99.90;;;;;;5051267;28;20033;-76
2022/07/01 12:31:24;;;;;;;1.67;0.93;;;20.00;99.90;;;;;;5049549;28;20044;-77
2022/07/01 12:33:52;;;;;;;1.48;0.77;;;20.10;99.90;;;;;;5050414;28;20025;-77
2022/07/01 12:36:18;;;;;;;2.50;1.15;;;20.30;99.90;;;;;;5051929;28;20033;-76
2022/07/01 12:38:44;;;;;;;3.17;0.70;;;20.40;99.90;;;;;;5050769;28;20029;-78
2022/07/01 12:41:28;;;;;;;1.52;0.73;;;20.40;99.90;;;;;;5042589;28;20045;-78
2022/07/01 12:43:54;;;;;;;3.05;0.85;;;20.00;99.90;;;;;;5039871;28;20071;-77
2022/07/01 12:46:32;;;;;;;3.80;1.17;;;19.60;99.90;;;;;;5040039;28;20472;-76
2022/07/01 12:48:59;;;;;;;1.00;1.00;;;19.20;99.90;;;;;;5048725;28;20421;-77
2022/07/01 12:51:34;;;;;;;1.73;0.88;;;18.80;99.90;;;;;;5041790;28;20033;-73
2022/07/01 12:54:00;;;;;;;2.60;0.90;;;18.50;99.90;;;;;;5033787;28;20026;-73
2022/07/01 12:56:29;;;;;;;1.10;0.82;;;18.30;99.90;;;;;;5040704;28;20378;-73
2022/07/01 12:58:55;;;;;;;4.27;1.20;;;18.10;99.90;;;;;;5028883;28;20482;-74
2022/07/01 13:01:21;;;;;;;1.98;1.05;;;18.00;99.90;;;;;;5048044;28;20119;-69
2022/07/01 13:03:47;;;;;;;2.95;1.10;;;17.70;99.90;;;;;;5052269;28;20044;-68
2022/07/01 13:06:13;;;;;;;7.28;2.08;;;17.60;99.90;;;;;;5040743;28;20040;-71